Time;durP1;ratioP1;P1;durP2;ratioP2;P2;SDS_P1;SDS_P2;PMS_P1;PMS_P2;Temp;Humidity;BMP_temperature;BMP_pressure;BME280_temperature;BME280_humidity;BME280_pressure;Samples;Min_cycle;Max_cycle;Signal;HPM_P1;HPM_P2
2022/04/03 00:01:04;;;;;;;2.67;2.00;;;;;;;0.55;73.63;97455.13;5090111;28;20466;-69
2022/04/03 00:03:30;;;;;;;2.22;2.03;;;;;;;0.65;73.66;97465.78;5090556;28;20021;-68
2022/04/03 00:05:55;;;;;;;4.25;2.10;;;;;;;0.62;73.04;97456.31;5090472;28;20028;-67
2022/04/03 00:08:21;;;;;;;2.40;1.92;;;;;;;0.64;73.22;97458.84;5090207;28;20077;-68
2022/04/03 00:10:46;;;;;;;2.47;1.80;;;;;;;0.63;73.26;97463.28;5090661;28;20028;-68
2022/04/03 00:13:12;;;;;;;1.98;1.77;;;;;;;0.56;72.65;97457.63;5072526;28;20043;-67
2022/04/03 00:15:41;;;;;;;2.65;2.08;;;;;;;0.36;73.32;97434.66;5090409;28;20028;-67
2022/04/03 00:18:08;;;;;;;2.33;1.80;;;;;;;0.55;73.58;97468.31;5089820;28;20024;-67
2022/04/03 00:20:39;;;;;;;2.97;1.90;;;;;;;0.59;73.35;97471.50;5090266;28;20050;-68
2022/04/03 00:23:06;;;;;;;2.08;1.80;;;;;;;0.55;72.97;97466.50;5090473;28;20453;-67
2022/04/03 00:25:32;;;;;;;2.53;2.00;;;;;;;0.51;73.24;97472.13;5090151;28;20096;-69
2022/04/03 00:27:58;;;;;;;2.22;1.80;;;;;;;0.50;73.20;97470.47;5090404;28;20028;-69
2022/04/03 00:30:23;;;;;;;2.38;2.00;;;;;;;0.49;73.69;97474.06;5093770;28;20492;-66
2022/04/03 00:32:49;;;;;;;2.00;1.80;;;;;;;0.52;73.48;97472.00;5094741;28;20099;-67
2022/04/03 00:35:16;;;;;;;2.55;2.10;;;;;;;0.50;73.64;97463.38;5094309;28;20043;-67
2022/04/03 00:37:42;;;;;;;2.85;1.85;;;;;;;0.53;73.34;97464.94;5093564;28;20044;-67
2022/04/03 00:40:09;;;;;;;1.95;1.80;;;;;;;0.30;73.29;97430.72;5093296;28;20377;-67
2022/04/03 00:42:36;;;;;;;2.17;1.98;;;;;;;0.50;73.04;97468.66;5094056;28;20024;-67
2022/04/03 00:45:06;;;;;;;2.10;1.77;;;;;;;0.48;73.24;97467.06;5094094;28;20134;-67
2022/04/03 00:47:32;;;;;;;2.17;1.95;;;;;;;0.44;73.58;97458.59;5093667;28;20020;-66
2022/04/03 00:49:59;;;;;;;2.10;1.90;;;;;;;0.43;73.61;97454.28;5093581;28;20063;-66
2022/04/03 00:52:25;;;;;;;2.50;2.30;;;;;;;0.40;73.39;97450.09;5094013;28;20043;-64
2022/04/03 00:54:51;;;;;;;2.75;2.15;;;;;;;0.35;73.47;97444.34;5093943;28;20036;-65
2022/04/03 00:57:18;;;;;;;2.80;2.03;;;;;;;0.37;73.95;97452.97;5092965;28;20115;-64
2022/04/03 00:59:44;;;;;;;2.50;2.30;;;;;;;0.31;73.17;97432.38;5093573;28;20040;-65
2022/04/03 01:02:09;;;;;;;2.42;2.20;;;;;;;0.17;73.88;97414.19;5093233;28;20097;-64
2022/04/03 01:04:39;;;;;;;2.85;2.20;;;;;;;0.47;73.34;97445.19;5093313;28;20111;-63
2022/04/03 01:07:05;;;;;;;3.78;2.35;;;;;;;0.47;73.91;97452.25;5092920;28;20032;-65
2022/04/03 01:09:31;;;;;;;2.53;2.30;;;;;;;0.46;72.98;97445.31;5093071;28;20461;-64
2022/04/03 01:11:56;;;;;;;2.53;2.33;;;;;;;0.41;73.11;97443.88;5093353;28;20043;-64
2022/04/03 01:14:35;;;;;;;2.42;2.22;;;;;;;0.40;73.80;97442.19;5093178;28;20032;-66
2022/04/03 01:17:01;;;;;;;2.58;2.38;;;;;;;0.33;73.15;97432.25;5093407;28;20036;-64
2022/04/03 01:19:27;;;;;;;3.00;2.70;;;;;;;0.34;73.36;97442.69;5093431;28;20031;-64
2022/04/03 01:21:53;;;;;;;2.78;2.58;;;;;;;0.38;73.45;97453.81;5093438;28;20035;-64
2022/04/03 01:24:20;;;;;;;2.75;2.55;;;;;;;0.29;73.41;97442.19;5093182;28;20028;-65
2022/04/03 01:26:46;;;;;;;3.20;2.63;;;;;;;0.06;73.28;97412.38;5093163;28;20073;-66
2022/04/03 01:29:12;;;;;;;3.20;2.72;;;;;;;0.23;73.88;97435.59;5092826;28;20427;-65
2022/04/03 01:31:37;;;;;;;3.08;2.78;;;;;;;0.33;73.52;97451.53;5093184;28;20024;-64
2022/04/03 01:34:03;;;;;;;2.72;2.53;;;;;;;0.36;73.25;97446.03;5093085;28;20028;-64
2022/04/03 01:36:29;;;;;;;2.53;2.33;;;;;;;0.37;73.44;97447.69;5092974;28;20081;-65
2022/04/03 01:38:54;;;;;;;3.10;2.80;;;;;;;0.31;73.36;97431.53;5092771;28;20139;-62
2022/04/03 01:41:20;;;;;;;2.95;2.65;;;;;;;0.37;73.44;97431.91;5093485;28;20062;-66
2022/04/03 01:43:45;;;;;;;2.95;2.65;;;;;;;0.35;72.79;97444.34;5074259;28;20028;-65
2022/04/03 01:46:11;;;;;;;3.33;2.95;;;;;;;0.35;73.26;97440.88;5092641;28;20076;-66
2022/04/03 01:48:36;;;;;;;3.15;2.83;;;;;;;0.30;73.63;97435.13;5092752;28;20020;-65
2022/04/03 01:51:02;;;;;;;2.85;2.63;;;;;;;0.05;73.22;97379.97;5092943;28;20118;-66
2022/04/03 01:53:28;;;;;;;3.50;3.10;;;;;;;0.35;73.05;97427.72;5092560;28;20512;-64
2022/04/03 01:56:03;;;;;;;2.78;2.58;;;;;;;0.40;73.60;97431.66;5092577;28;20088;-64
2022/04/03 01:58:29;;;;;;;2.83;2.50;;;;;;;0.38;73.04;97438.03;5074682;28;20462;-64
2022/04/03 02:00:55;;;;;;;2.60;2.40;;;;;;;0.36;73.03;97432.88;5074701;28;20434;-65
2022/04/03 02:03:21;;;;;;;3.03;2.65;;;;;;;0.35;72.76;97433.81;5092087;28;20115;-68
2022/04/03 02:05:47;;;;;;;3.08;2.72;;;;;;;0.31;72.93;97421.00;5092210;28;20093;-66
2022/04/03 02:08:12;;;;;;;3.65;2.78;;;;;;;0.20;72.65;97408.69;5092706;28;20024;-65
2022/04/03 02:10:38;;;;;;;2.80;2.60;;;;;;;0.27;72.65;97420.44;5092630;28;20381;-65
2022/04/03 02:13:04;;;;;;;3.17;2.88;;;;;;;0.25;72.35;97419.72;5092290;28;20059;-65
2022/04/03 02:15:30;;;;;;;2.88;2.58;;;;;;;0.16;72.54;97417.75;5092208;28;20043;-66
2022/04/03 02:17:55;;;;;;;3.47;2.60;;;;;;;0.06;72.67;97399.22;5093000;28;20021;-65
2022/04/03 02:20:21;;;;;;;2.85;2.38;;;;;;;0.11;72.74;97413.69;5092501;28;20052;-64
2022/04/03 02:22:47;;;;;;;3.78;2.40;;;;;;;0.07;72.83;97411.41;5091783;28;20849;-64
2022/04/03 02:25:13;;;;;;;2.55;2.35;;;;;;;0.12;72.52;97411.88;5091435;28;20080;-64
2022/04/03 02:27:44;;;;;;;2.90;2.60;;;;;;;0.09;72.25;97412.97;5092119;28;20032;-66
2022/04/03 02:30:10;;;;;;;3.22;2.70;;;;;;;-0.02;72.35;97405.91;5092225;28;20039;-63
2022/04/03 02:32:37;;;;;;;3.03;2.42;;;;;;;0.05;72.55;97416.81;5073214;28;20024;-64
2022/04/03 02:35:04;;;;;;;3.80;2.42;;;;;;;0.08;72.69;97415.72;5091849;28;20032;-65
2022/04/03 02:37:30;;;;;;;2.85;2.55;;;;;;;-0.17;72.25;97362.34;5091970;28;20034;-66
2022/04/03 02:39:56;;;;;;;3.13;2.53;;;;;;;0.07;71.98;97414.91;5092438;28;20118;-64
2022/04/03 02:42:22;;;;;;;2.83;2.40;;;;;;;-0.14;71.77;97375.25;5090976;28;20445;-62
2022/04/03 02:44:47;;;;;;;2.83;2.45;;;;;;;0.01;71.98;97415.38;5091285;28;20084;-65
2022/04/03 02:47:14;;;;;;;3.08;2.58;;;;;;;-0.02;72.16;97411.16;5073411;28;20120;-64
2022/04/03 02:49:39;;;;;;;2.90;2.47;;;;;;;0.08;71.89;97406.03;5091482;28;20028;-64
2022/04/03 02:52:05;;;;;;;3.10;2.60;;;;;;;0.09;71.57;97418.25;5090766;28;20039;-66
2022/04/03 02:54:31;;;;;;;3.30;3.00;;;;;;;-0.16;71.59;97361.41;5091250;28;20031;-65
2022/04/03 02:56:57;;;;;;;2.85;2.53;;;;;;;0.09;71.31;97417.38;5085166;28;20074;-66
2022/04/03 02:59:22;;;;;;;3.03;2.60;;;;;;;0.11;71.29;97416.34;5068430;28;20075;-66
2022/04/03 03:01:48;;;;;;;3.28;2.72;;;;;;;0.14;70.83;97420.53;5050866;28;20032;-66
2022/04/03 03:04:14;;;;;;;3.50;2.80;;;;;;;0.11;71.03;97421.59;5032910;28;20339;-66
2022/04/03 03:06:40;;;;;;;4.47;2.70;;;;;;;0.11;70.64;97426.84;5061450;28;20024;-66
2022/04/03 03:09:06;;;;;;;3.35;3.00;;;;;;;0.04;70.43;97412.50;5070710;28;20051;-66
2022/04/03 03:11:31;;;;;;;2.63;2.38;;;;;;;0.10;69.88;97427.81;5070320;28;20032;-65
2022/04/03 03:13:57;;;;;;;4.57;2.72;;;;;;;0.18;69.73;97436.91;5071179;28;20088;-65
2022/04/03 03:16:23;;;;;;;3.30;2.72;;;;;;;0.12;70.09;97428.53;5070435;28;20047;-65
2022/04/03 03:18:48;;;;;;;2.92;2.63;;;;;;;0.14;70.02;97425.78;5070481;28;20031;-66
2022/04/03 03:21:15;;;;;;;3.10;2.70;;;;;;;0.19;70.06;97428.06;5070452;28;20028;-67
2022/04/03 03:23:41;;;;;;;3.20;2.42;;;;;;;0.19;69.90;97428.91;5070158;28;20031;-66
2022/04/03 03:26:07;;;;;;;4.28;2.85;;;;;;;0.09;69.25;97407.72;5068145;28;20034;-66
2022/04/03 03:28:32;;;;;;;3.38;2.53;;;;;;;0.09;69.52;97423.50;5050837;28;20040;-66
2022/04/03 03:30:58;;;;;;;3.50;2.70;;;;;;;0.06;69.47;97415.84;5032679;28;20416;-66
2022/04/03 03:33:23;;;;;;;2.63;2.42;;;;;;;0.06;69.05;97434.28;5050325;28;20025;-68
2022/04/03 03:35:49;;;;;;;3.15;2.38;;;;;;;0.02;68.98;97432.84;5050902;28;20029;-66
2022/04/03 03:38:14;;;;;;;3.50;2.72;;;;;;;0.04;68.95;97440.59;5050372;28;20481;-65
2022/04/03 03:40:40;;;;;;;3.35;2.55;;;;;;;0.11;69.30;97439.16;5050095;28;20045;-66
2022/04/03 03:43:07;;;;;;;2.88;2.40;;;;;;;0.17;68.95;97436.09;5050345;28;20029;-65
2022/04/03 03:45:33;;;;;;;4.55;2.53;;;;;;;0.25;68.68;97438.13;5050609;28;20107;-65
2022/04/03 03:47:58;;;;;;;3.30;2.70;;;;;;;0.35;68.59;97436.44;5050431;28;20466;-65
2022/04/03 03:50:24;;;;;;;4.13;2.38;;;;;;;0.40;67.92;97423.75;5049966;28;20040;-65
2022/04/03 03:52:50;;;;;;;4.00;2.95;;;;;;;0.45;67.52;97433.09;5032737;28;20111;-64
2022/04/03 03:55:16;;;;;;;5.32;2.60;;;;;;;0.38;67.78;97423.06;5050670;28;20132;-66
2022/04/03 03:57:46;;;;;;;3.92;2.45;;;;;;;0.56;67.43;97438.38;5049979;28;20115;-66
2022/04/03 04:00:12;;;;;;;2.85;2.28;;;;;;;0.30;67.26;97422.81;5049890;28;20044;-66
2022/04/03 04:02:38;;;;;;;3.58;2.50;;;;;;;0.51;67.25;97438.72;5049965;28;20025;-66
2022/04/03 04:05:05;;;;;;;4.32;2.40;;;;;;;0.57;66.85;97440.06;5050226;28;20032;-62
2022/04/03 04:07:39;;;;;;;4.65;2.85;;;;;;;0.67;67.27;97443.63;5050229;28;20025;-66
2022/04/03 04:10:04;;;;;;;2.78;2.50;;;;;;;0.64;67.05;97438.59;5049717;28;20033;-63
2022/04/03 04:12:30;;;;;;;5.80;2.67;;;;;;;0.76;66.32;97442.06;5050597;28;20494;-63
2022/04/03 04:14:55;;;;;;;3.47;2.75;;;;;;;0.78;66.60;97457.78;5065347;28;20440;-65
2022/04/03 04:17:21;;;;;;;3.28;2.50;;;;;;;0.76;66.15;97451.78;5070238;28;20092;-64
2022/04/03 04:19:46;;;;;;;3.45;2.42;;;;;;;0.66;66.62;97446.41;5069602;28;20378;-64
2022/04/03 04:22:12;;;;;;;4.65;2.22;;;;;;;0.70;66.37;97468.91;5069972;28;20041;-63
2022/04/03 04:24:37;;;;;;;4.15;2.67;;;;;;;0.69;66.73;97461.97;5070406;28;20125;-65
2022/04/03 04:27:03;;;;;;;3.33;2.63;;;;;;;0.71;66.61;97473.22;5070233;28;20074;-63
2022/04/03 04:29:29;;;;;;;7.38;2.78;;;;;;;0.64;66.31;97459.69;5069573;28;20032;-64
2022/04/03 04:31:54;;;;;;;2.97;2.60;;;;;;;0.74;66.26;97469.50;5070092;28;20090;-65
2022/04/03 04:34:20;;;;;;;3.85;2.70;;;;;;;0.79;66.16;97477.88;5070308;28;20032;-66
2022/04/03 04:36:45;;;;;;;2.63;2.40;;;;;;;0.78;66.79;97470.94;5069936;28;20035;-69
2022/04/03 04:39:12;;;;;;;6.05;2.88;;;;;;;0.79;66.20;97472.63;5069270;28;20060;-65
2022/04/03 04:41:38;;;;;;;4.15;3.08;;;;;;;0.82;66.02;97470.56;5069895;28;20039;-66
2022/04/03 04:44:03;;;;;;;4.28;2.88;;;;;;;0.76;65.88;97478.13;5070368;28;20037;-67
2022/04/03 04:46:29;;;;;;;4.43;2.60;;;;;;;0.76;66.38;97480.75;5069169;28;20519;-63
2022/04/03 04:48:54;;;;;;;5.55;3.08;;;;;;;0.73;66.35;97473.94;5069236;28;20821;-65
2022/04/03 04:51:20;;;;;;;3.13;2.58;;;;;;;0.85;66.03;97490.56;5049552;28;20120;-68
2022/04/03 04:53:45;;;;;;;3.83;2.90;;;;;;;0.97;66.01;97488.75;5049725;28;20124;-69
2022/04/03 04:56:12;;;;;;;3.53;2.83;;;;;;;1.14;65.24;97493.53;5049574;28;20482;-66
2022/04/03 04:58:37;;;;;;;3.22;2.90;;;;;;;1.27;64.55;97488.13;5049520;28;20029;-63
2022/04/03 05:01:03;;;;;;;4.10;2.90;;;;;;;1.33;64.49;97488.59;5049845;28;20111;-65
2022/04/03 05:03:28;;;;;;;3.58;3.00;;;;;;;1.43;64.33;97498.28;5049478;28;20108;-63
2022/04/03 05:05:55;;;;;;;3.97;2.90;;;;;;;1.52;63.95;97488.78;5049389;28;20502;-65
2022/04/03 05:08:21;;;;;;;3.33;2.42;;;;;;;1.77;63.01;97493.84;5049846;28;20203;-65
2022/04/03 05:10:49;;;;;;;2.78;2.47;;;;;;;2.02;62.33;97500.59;5031650;28;20159;-66
2022/04/03 05:13:14;;;;;;;3.22;2.88;;;;;;;2.18;60.95;97505.41;5049307;28;20033;-63
2022/04/03 05:15:40;;;;;;;4.60;2.92;;;;;;;2.18;61.00;97488.75;5052489;28;20039;-67
2022/04/03 05:18:06;;;;;;;4.10;2.63;;;;;;;2.43;60.82;97509.50;5053086;28;20029;-66
2022/04/03 05:20:31;;;;;;;2.90;2.60;;;;;;;2.47;60.33;97498.66;5069612;28;20052;-67
2022/04/03 05:22:57;;;;;;;3.20;2.47;;;;;;;2.60;60.03;97507.19;5071729;28;20482;-63
2022/04/03 05:25:22;;;;;;;3.10;2.80;;;;;;;2.63;59.37;97516.69;5071762;28;20037;-65
2022/04/03 05:27:48;;;;;;;5.38;2.67;;;;;;;2.60;59.80;97523.06;5070955;28;20080;-65
2022/04/03 05:30:14;;;;;;;3.35;2.80;;;;;;;2.62;59.38;97521.13;5053668;28;20036;-67
2022/04/03 05:32:40;;;;;;;3.88;2.90;;;;;;;2.56;59.87;97526.94;5071755;28;20107;-70
2022/04/03 05:35:08;;;;;;;3.33;2.75;;;;;;;2.41;59.28;97531.69;5071283;28;20039;-66
2022/04/03 05:37:33;;;;;;;4.20;2.70;;;;;;;2.23;60.13;97520.88;5071428;28;20024;-65
2022/04/03 05:39:59;;;;;;;3.55;2.70;;;;;;;2.09;60.48;97527.31;5071677;28;20389;-66
2022/04/03 05:42:25;;;;;;;7.25;2.85;;;;;;;2.05;60.88;97523.22;5071255;28;20032;-67
2022/04/03 05:44:51;;;;;;;3.38;2.50;;;;;;;2.06;60.26;97528.41;5070554;28;20066;-66
2022/04/03 05:47:17;;;;;;;3.35;2.83;;;;;;;2.20;60.66;97521.97;5052638;28;20055;-69
2022/04/03 05:49:43;;;;;;;3.00;2.63;;;;;;;2.30;59.13;97522.03;5070975;28;20031;-72
2022/04/03 05:52:09;;;;;;;5.32;2.30;;;;;;;2.42;59.00;97525.44;5070979;28;20036;-69
2022/04/03 05:54:34;;;;;;;3.10;2.80;;;;;;;2.50;58.92;97493.13;5070111;28;20027;-68
2022/04/03 05:56:59;;;;;;;3.70;2.35;;;;;;;2.83;58.17;97528.19;5070431;28;20036;-70
2022/04/03 05:59:25;;;;;;;3.30;2.53;;;;;;;2.91;57.59;97538.94;5070947;28;20047;-71
2022/04/03 06:01:50;;;;;;;2.80;2.00;;;;;;;2.91;56.68;97536.31;5066912;28;20338;-65
2022/04/03 06:04:16;;;;;;;3.47;2.50;;;;;;;2.92;56.80;97537.97;5069830;28;20468;-66
2022/04/03 06:06:42;;;;;;;4.45;2.35;;;;;;;2.90;56.41;97533.78;5069934;28;20025;-64
2022/04/03 06:09:08;;;;;;;3.38;2.50;;;;;;;2.89;56.29;97538.22;5071190;28;20073;-64
2022/04/03 06:11:33;;;;;;;4.43;2.88;;;;;;;2.92;56.16;97537.97;5070680;28;20559;-64
2022/04/03 06:14:00;;;;;;;4.25;2.97;;;;;;;2.94;55.25;97549.25;5070266;28;20036;-64
2022/04/03 06:16:25;;;;;;;4.15;2.75;;;;;;;3.03;56.91;97546.78;5070144;28;20103;-65
2022/04/03 06:18:53;;;;;;;4.53;2.38;;;;;;;3.20;55.82;97558.53;5070416;28;20426;-67
2022/04/03 06:21:19;;;;;;;4.40;2.45;;;;;;;3.32;55.45;97543.41;5068283;28;20064;-67
2022/04/03 06:23:45;;;;;;;2.90;2.60;;;;;;;3.50;54.78;97552.38;5051471;28;20105;-60
2022/04/03 06:26:10;;;;;;;2.95;2.20;;;;;;;3.54;53.67;97552.94;5068811;28;20028;-68
2022/04/03 06:28:36;;;;;;;3.47;2.47;;;;;;;3.65;54.20;97557.28;5070313;28;20397;-66
2022/04/03 06:31:01;;;;;;;3.13;2.50;;;;;;;3.56;54.01;97559.75;5070237;28;20036;-70
2022/04/03 06:33:27;;;;;;;4.68;2.50;;;;;;;3.37;53.91;97527.97;5069231;28;20437;-65
2022/04/03 06:35:53;;;;;;;3.08;2.20;;;;;;;3.32;53.44;97551.34;5069804;28;20028;-66
2022/04/03 06:38:18;;;;;;;3.88;2.65;;;;;;;3.13;53.61;97566.16;5050308;28;20418;-65
2022/04/03 06:40:48;;;;;;;4.25;2.90;;;;;;;2.87;54.99;97571.88;5069685;28;20037;-69
2022/04/03 06:43:20;;;;;;;4.38;3.75;;;;;;;2.70;56.56;97582.09;5051344;28;20028;-65
2022/04/03 06:45:47;;;;;;;3.95;2.88;;;;;;;2.58;56.27;97588.38;5069372;28;20020;-63
2022/04/03 06:48:12;;;;;;;3.60;2.55;;;;;;;2.29;57.05;97595.16;5069467;28;20389;-65
2022/04/03 06:50:38;;;;;;;5.35;2.63;;;;;;;2.07;57.97;97572.31;5069911;28;20024;-68
2022/04/03 06:53:04;;;;;;;4.10;2.88;;;;;;;1.94;57.87;97590.13;5069338;28;20029;-67
2022/04/03 06:55:29;;;;;;;3.90;2.92;;;;;;;1.71;58.28;97598.91;5069912;28;20055;-64
2022/04/03 06:57:55;;;;;;;3.65;2.60;;;;;;;1.54;58.77;97589.72;5069484;28;20177;-65
2022/04/03 07:00:20;;;;;;;3.78;2.90;;;;;;;1.62;59.22;97598.81;5069244;28;20035;-65
2022/04/03 07:02:46;;;;;;;4.60;3.13;;;;;;;1.42;59.22;97593.31;5069363;28;20020;-65
2022/04/03 07:05:12;;;;;;;6.18;2.95;;;;;;;1.63;59.61;97624.22;5069657;28;20032;-64
2022/04/03 07:07:38;;;;;;;3.92;2.90;;;;;;;1.67;59.54;97612.47;5069347;28;20462;-64
2022/04/03 07:10:04;;;;;;;3.95;3.20;;;;;;;1.52;57.90;97585.50;5069442;28;20027;-65
2022/04/03 07:12:29;;;;;;;7.63;3.72;;;;;;;1.68;58.03;97625.53;5069713;28;20465;-64
2022/04/03 07:14:56;;;;;;;5.45;3.75;;;;;;;1.70;59.23;97625.44;5069215;28;20032;-64
2022/04/03 07:17:22;;;;;;;3.65;2.70;;;;;;;1.86;58.01;97639.06;5069174;28;20394;-64
2022/04/03 07:19:47;;;;;;;3.65;3.25;;;;;;;2.00;57.75;97648.50;5069613;28;20024;-65
2022/04/03 07:22:13;;;;;;;4.35;3.05;;;;;;;1.95;57.59;97657.78;5069036;28;20082;-64
2022/04/03 07:24:39;;;;;;;3.92;3.33;;;;;;;1.98;58.72;97650.44;5068934;28;20024;-67
2022/04/03 07:27:04;;;;;;;4.47;3.47;;;;;;;2.14;58.04;97659.75;5070032;28;20776;-65
2022/04/03 07:29:30;;;;;;;5.85;3.70;;;;;;;2.22;57.76;97667.06;5069429;28;20024;-64
2022/04/03 07:31:55;;;;;;;7.90;3.55;;;;;;;2.06;56.90;97633.16;5052188;28;20056;-64
2022/04/03 07:34:21;;;;;;;7.70;4.10;;;;;;;2.24;57.03;97679.16;5070453;28;20075;-65
2022/04/03 07:36:46;;;;;;;5.18;3.80;;;;;;;2.15;57.30;97672.81;5052497;28;20029;-66
2022/04/03 07:39:12;;;;;;;5.28;3.83;;;;;;;2.04;58.21;97683.41;5069791;28;20044;-66
2022/04/03 07:41:38;;;;;;;4.32;3.88;;;;;;;2.00;57.19;97676.72;5070483;28;20037;-65
2022/04/03 07:44:08;;;;;;;4.95;3.67;;;;;;;1.95;58.29;97689.44;5070433;28;20060;-66
2022/04/03 07:46:35;;;;;;;5.53;4.00;;;;;;;1.92;58.23;97687.03;5070557;28;20081;-64
2022/04/03 07:49:02;;;;;;;4.18;3.38;;;;;;;1.91;58.08;97690.63;5069467;28;20107;-66
2022/04/03 07:51:27;;;;;;;5.07;3.70;;;;;;;1.92;57.36;97697.56;5052334;28;20043;-77
2022/04/03 07:53:57;;;;;;;4.18;3.40;;;;;;;1.70;56.46;97659.72;5053089;28;20040;-68
2022/04/03 07:56:22;;;;;;;5.80;3.35;;;;;;;1.90;56.85;97703.00;5053402;28;20028;-71
2022/04/03 07:58:49;;;;;;;4.60;2.92;;;;;;;1.84;56.47;97701.66;5070260;28;20094;-67
2022/04/03 08:01:14;;;;;;;5.38;3.53;;;;;;;1.85;56.86;97706.00;5070168;28;20436;-67
2022/04/03 08:03:40;;;;;;;5.53;2.97;;;;;;;2.07;56.94;97712.19;5070301;28;20120;-67
2022/04/03 08:06:06;;;;;;;5.63;3.42;;;;;;;2.31;55.54;97716.47;5068827;28;20082;-65
2022/04/03 08:08:31;;;;;;;4.45;3.28;;;;;;;2.50;54.87;97707.06;5068249;28;20051;-66
2022/04/03 08:10:57;;;;;;;5.07;3.53;;;;;;;2.69;54.67;97717.81;5066894;28;20366;-65
2022/04/03 08:13:23;;;;;;;6.28;3.47;;;;;;;2.86;53.31;97723.50;5033268;28;20037;-67
2022/04/03 08:15:49;;;;;;;5.40;3.13;;;;;;;2.99;53.56;97729.44;5068351;28;20035;-66
2022/04/03 08:18:15;;;;;;;6.05;3.47;;;;;;;3.18;54.55;97733.22;5065942;28;20028;-63
2022/04/03 08:20:41;;;;;;;5.97;3.78;;;;;;;3.33;52.54;97741.66;5068456;28;20366;-62
2022/04/03 08:23:06;;;;;;;5.72;3.50;;;;;;;3.32;51.33;97737.34;5051309;28;20031;-62
2022/04/03 08:25:33;;;;;;;5.38;3.50;;;;;;;3.11;51.69;97706.44;5050816;28;20055;-63
2022/04/03 08:28:00;;;;;;;5.32;3.85;;;;;;;3.32;50.63;97744.41;5063900;28;20493;-67
2022/04/03 08:30:34;;;;;;;5.75;3.53;;;;;;;3.38;51.47;97743.91;5064001;28;20166;-65
2022/04/03 08:33:01;;;;;;;6.55;3.90;;;;;;;3.37;52.12;97736.91;5067992;28;20024;-67
2022/04/03 08:35:28;;;;;;;5.20;3.60;;;;;;;3.62;50.25;97751.56;5067950;28;20029;-66
2022/04/03 08:37:55;;;;;;;7.68;3.75;;;;;;;3.87;50.82;97745.00;5067990;28;20041;-67
2022/04/03 08:40:23;;;;;;;5.63;3.47;;;;;;;3.98;48.58;97698.22;5061020;28;20123;-62
2022/04/03 08:42:53;;;;;;;4.25;3.38;;;;;;;4.67;49.01;97730.97;5067333;28;20230;-63
2022/04/03 08:45:19;;;;;;;5.35;3.50;;;;;;;5.21;46.25;97765.03;5067945;28;20036;-64
2022/04/03 08:47:54;;;;;;;6.28;3.47;;;;;;;5.60;46.77;97749.06;5032194;28;20042;-63
2022/04/03 08:50:24;;;;;;;5.80;4.03;;;;;;;5.85;45.08;97736.13;5052145;28;20085;-63
2022/04/03 08:52:51;;;;;;;6.00;3.60;;;;;;;6.25;44.31;97747.44;5069212;28;20333;-61
2022/04/03 08:55:18;;;;;;;8.52;3.63;;;;;;;6.60;44.03;97750.34;5071304;28;20363;-62
2022/04/03 08:57:44;;;;;;;6.50;4.18;;;;;;;6.52;43.75;97699.75;5037308;28;20133;-64
2022/04/03 09:00:11;;;;;;;5.93;4.00;;;;;;;7.04;44.90;97752.25;5037174;28;20501;-64
2022/04/03 09:02:37;;;;;;;3.83;3.40;;;;;;;7.32;43.12;97755.66;5072217;28;20040;-62
2022/04/03 09:05:06;;;;;;;4.05;3.65;;;;;;;7.69;43.23;97753.75;5068549;28;20047;-62
2022/04/03 09:07:31;;;;;;;4.38;3.50;;;;;;;7.87;43.03;97758.19;5071334;28;20039;-58
2022/04/03 09:10:23;;;;;;;5.70;3.53;;;;;;;8.14;44.49;97751.00;5052755;28;20028;-60
2022/04/03 09:12:51;;;;;;;8.00;4.75;;;;;;;7.93;41.75;97768.22;5046866;28;20123;-64
2022/04/03 09:15:19;;;;;;;5.45;3.90;;;;;;;7.56;42.91;97771.97;5053253;28;20025;-60
2022/04/03 09:17:49;;;;;;;5.93;4.07;;;;;;;7.37;44.69;97765.84;5070582;28;20036;-58
2022/04/03 09:20:17;;;;;;;4.68;3.53;;;;;;;7.29;44.40;97763.09;5070382;28;20108;-62
2022/04/03 09:22:44;;;;;;;5.00;3.55;;;;;;;7.39;46.22;97766.53;5070471;28;20060;-61
2022/04/03 09:25:13;;;;;;;5.60;3.92;;;;;;;7.35;44.74;97772.31;5070929;28;20044;-64
2022/04/03 09:27:52;;;;;;;4.22;3.20;;;;;;;7.36;44.94;97773.97;5051737;28;20043;-62
2022/04/03 09:30:20;;;;;;;5.60;3.90;;;;;;;7.37;45.58;97791.63;5071398;28;20547;-63
2022/04/03 09:32:48;;;;;;;4.55;3.97;;;;;;;7.15;44.62;97745.84;5065577;28;20100;-63
2022/04/03 09:35:15;;;;;;;5.35;3.33;;;;;;;7.30;44.40;97789.59;5070497;28;20450;-65
2022/04/03 09:38:04;;;;;;;5.18;3.58;;;;;;;7.27;46.69;97800.53;5069855;28;20033;-65
2022/04/03 09:40:31;;;;;;;7.93;4.88;;;;;;;7.10;45.36;97804.03;5050384;28;20036;-66
2022/04/03 09:43:21;;;;;;;11.13;4.90;;;;;;;7.17;47.29;97805.94;5054247;28;20036;-64
2022/04/03 09:45:52;;;;;;;10.23;5.00;;;;;;;7.25;45.94;97804.34;5049184;28;20087;-63
2022/04/03 09:48:31;;;;;;;8.60;5.75;;;;;;;7.44;47.28;97805.97;5071331;28;20044;-65
2022/04/03 09:51:04;;;;;;;7.63;5.20;;;;;;;7.47;46.86;97805.66;5068385;28;20037;-65
2022/04/03 09:53:42;;;;;;;8.77;4.75;;;;;;;7.51;47.22;97816.88;5050425;28;20036;-70
2022/04/03 09:56:12;;;;;;;10.27;4.65;;;;;;;7.36;46.32;97820.09;5068003;28;20032;-64
2022/04/03 09:59:03;;;;;;;6.28;4.30;;;;;;;7.46;47.50;97823.50;5070431;28;20025;-60
2022/04/03 10:01:34;;;;;;;5.80;4.25;;;;;;;7.35;46.67;97822.88;5064475;28;20025;-62
2022/04/03 10:04:02;;;;;;;5.80;3.70;;;;;;;7.30;45.99;97826.84;5051909;28;20032;-61
2022/04/03 10:06:29;;;;;;;4.78;3.50;;;;;;;6.83;45.83;97766.69;5049496;28;20028;-56
2022/04/03 10:08:55;;;;;;;6.43;4.25;;;;;;;7.16;45.39;97835.34;5070396;28;20021;-62
2022/04/03 10:11:21;;;;;;;5.65;3.90;;;;;;;7.08;47.26;97827.31;5070822;28;20056;-60
2022/04/03 10:13:48;;;;;;;5.57;3.28;;;;;;;7.09;45.93;97831.63;5067124;28;20369;-61
2022/04/03 10:16:16;;;;;;;5.47;3.30;;;;;;;6.92;45.60;97833.28;5070076;28;20078;-59
2022/04/03 10:18:43;;;;;;;4.25;3.60;;;;;;;6.55;45.61;97829.72;5052380;28;20032;-59
2022/04/03 10:21:42;;;;;;;5.30;4.00;;;;;;;6.41;47.16;97833.69;5071048;28;20481;-60
2022/04/03 10:24:23;;;;;;;7.35;4.20;;;;;;;6.64;47.71;97831.47;5066929;28;20048;-60
2022/04/03 10:27:14;;;;;;;6.13;4.32;;;;;;;7.03;47.01;97830.41;5070805;28;20047;-68
2022/04/03 10:29:42;;;;;;;4.95;3.25;;;;;;;7.12;45.92;97813.53;5053810;28;20085;-63
2022/04/03 10:32:08;;;;;;;5.00;3.72;;;;;;;7.32;45.48;97821.34;5070843;28;20485;-62
2022/04/03 10:34:58;;;;;;;4.15;3.13;;;;;;;7.50;45.55;97826.69;5050017;28;20064;-59
2022/04/03 10:37:35;;;;;;;5.18;3.10;;;;;;;7.46;44.49;97835.94;5069202;28;20714;-65
2022/04/03 10:40:15;;;;;;;5.30;3.20;;;;;;;7.56;47.32;97839.38;5070434;28;20922;-54
2022/04/03 10:42:51;;;;;;;4.05;3.30;;;;;;;7.81;47.16;97834.25;5067694;28;20086;-60
2022/04/03 10:45:28;;;;;;;4.82;3.53;;;;;;;7.96;45.81;97847.03;5069825;28;20478;-57
2022/04/03 10:48:27;;;;;;;4.30;3.08;;;;;;;7.87;45.38;97814.16;5070118;28;20024;-56
2022/04/03 10:51:07;;;;;;;3.50;3.20;;;;;;;8.00;45.62;97843.88;5025213;28;20044;-58
2022/04/03 10:53:47;;;;;;;4.70;3.22;;;;;;;8.03;46.05;97842.72;5069484;28;20382;-57
2022/04/03 10:56:24;;;;;;;4.85;3.08;;;;;;;7.87;46.14;97838.94;5069986;28;20024;-55
2022/04/03 10:58:52;;;;;;;4.03;2.85;;;;;;;7.74;44.73;97820.72;5069274;28;20021;-55
2022/04/03 11:01:32;;;;;;;3.53;2.85;;;;;;;7.78;45.30;97818.56;5067327;28;20025;-56
2022/04/03 11:04:01;;;;;;;6.68;2.88;;;;;;;7.86;44.67;97857.78;5051337;28;20461;-59
2022/04/03 11:06:29;;;;;;;6.55;2.90;;;;;;;7.58;44.93;97864.03;5069402;28;20480;-58
2022/04/03 11:09:09;;;;;;;4.18;2.80;;;;;;;7.54;45.89;97870.66;5069649;28;20090;-59
2022/04/03 11:11:58;;;;;;;5.63;2.80;;;;;;;7.44;44.72;97865.41;5069132;28;20499;-63
2022/04/03 11:14:57;;;;;;;8.90;2.70;;;;;;;7.34;46.53;97864.63;5067218;28;20390;-60
2022/04/03 11:18:02;;;;;;;4.30;3.08;;;;;;;7.46;46.99;97879.41;5068131;28;20047;-58
2022/04/03 11:20:39;;;;;;;3.95;2.65;;;;;;;7.52;46.50;97877.97;5067667;28;20051;-56
2022/04/03 11:23:07;;;;;;;5.07;2.85;;;;;;;7.58;46.04;97884.50;5070522;28;20032;-60
2022/04/03 11:25:33;;;;;;;4.88;2.75;;;;;;;7.59;46.30;97881.69;5052648;28;20489;-60
2022/04/03 11:27:58;;;;;;;4.20;3.03;;;;;;;7.71;47.36;97882.28;5070518;28;20033;-57
2022/04/03 11:30:24;;;;;;;4.80;3.30;;;;;;;7.86;45.97;97901.22;5070296;28;20086;-59
2022/04/03 11:32:50;;;;;;;6.90;3.47;;;;;;;7.82;46.31;97896.34;5069074;28;20037;-60
2022/04/03 11:35:16;;;;;;;5.82;3.50;;;;;;;7.70;47.32;97895.75;5070665;28;20028;-55
2022/04/03 11:37:44;;;;;;;4.43;2.92;;;;;;;7.61;46.17;97897.53;5070134;28;20105;-61
2022/04/03 11:40:12;;;;;;;5.05;2.90;;;;;;;7.39;46.22;97902.31;5070451;28;20051;-58
2022/04/03 11:42:38;;;;;;;5.28;3.40;;;;;;;7.14;47.24;97898.53;5069802;28;20144;-58
2022/04/03 11:45:07;;;;;;;5.50;3.65;;;;;;;6.99;48.15;97917.69;5070452;28;20453;-59